sensor_id;sensor_type;location;lat;lon;timestamp;pressure;altitude;pressure_sealevel;temperature;humidity
41531;BME280;58990;46.284;13.126;2022-10-23T00:00:27;99952.75;;;12.50;85.92
41531;BME280;58990;46.284;13.126;2022-10-23T00:02:53;99958.84;;;12.50;85.96
41531;BME280;58990;46.284;13.126;2022-10-23T00:05:20;99956.63;;;12.62;84.15
41531;BME280;58990;46.284;13.126;2022-10-23T00:07:52;99941.47;;;12.79;82.64
41531;BME280;58990;46.284;13.126;2022-10-23T00:10:19;99952.69;;;12.96;81.96
41531;BME280;58990;46.284;13.126;2022-10-23T00:12:46;99950.69;;;12.98;81.70
41531;BME280;58990;46.284;13.126;2022-10-23T00:15:13;99941.31;;;12.95;81.87
41531;BME280;58990;46.284;13.126;2022-10-23T00:17:38;99934.97;;;12.90;82.29
41531;BME280;58990;46.284;13.126;2022-10-23T00:20:08;99932.31;;;12.90;82.23
41531;BME280;58990;46.284;13.126;2022-10-23T00:22:33;99925.78;;;12.86;82.49
41531;BME280;58990;46.284;13.126;2022-10-23T00:24:59;99932.50;;;12.88;81.46
41531;BME280;58990;46.284;13.126;2022-10-23T00:27:25;99951.06;;;12.95;81.45
41531;BME280;58990;46.284;13.126;2022-10-23T00:29:51;99950.47;;;12.85;82.28
41531;BME280;58990;46.284;13.126;2022-10-23T00:32:19;99950.75;;;12.75;83.10
41531;BME280;58990;46.284;13.126;2022-10-23T00:34:45;99961.53;;;12.65;83.39
41531;BME280;58990;46.284;13.126;2022-10-23T00:37:10;99965.81;;;12.66;83.45
41531;BME280;58990;46.284;13.126;2022-10-23T00:39:35;99964.84;;;12.59;83.89
41531;BME280;58990;46.284;13.126;2022-10-23T00:42:01;99970.97;;;12.59;84.16
41531;BME280;58990;46.284;13.126;2022-10-23T00:57:35;99968.44;;;12.66;83.18
41531;BME280;58990;46.284;13.126;2022-10-23T01:00:00;99955.59;;;12.63;83.50
41531;BME280;58990;46.284;13.126;2022-10-23T01:02:25;99960.88;;;12.63;83.35
41531;BME280;58990;46.284;13.126;2022-10-23T01:04:51;99957.91;;;12.66;82.40
41531;BME280;58990;46.284;13.126;2022-10-23T01:07:36;99954.38;;;12.74;81.65
41531;BME280;58990;46.284;13.126;2022-10-23T01:15:47;99953.25;;;12.68;82.52
41531;BME280;58990;46.284;13.126;2022-10-23T01:21:12;99946.19;;;12.69;82.88
41531;BME280;58990;46.284;13.126;2022-10-23T01:35:02;99930.56;;;12.44;84.05
41531;BME280;58990;46.284;13.126;2022-10-23T01:37:42;99925.50;;;12.42;84.43
41531;BME280;58990;46.284;13.126;2022-10-23T01:40:15;99927.81;;;12.37;84.53
41531;BME280;58990;46.284;13.126;2022-10-23T01:42:48;99928.78;;;12.44;83.82
41531;BME280;58990;46.284;13.126;2022-10-23T01:45:20;99927.75;;;12.45;83.56
41531;BME280;58990;46.284;13.126;2022-10-23T01:47:46;99927.38;;;12.57;82.64
41531;BME280;58990;46.284;13.126;2022-10-23T01:50:14;99926.72;;;12.55;82.74
41531;BME280;58990;46.284;13.126;2022-10-23T01:52:41;99932.50;;;12.50;83.00
41531;BME280;58990;46.284;13.126;2022-10-23T01:55:09;99925.59;;;12.49;83.10
41531;BME280;58990;46.284;13.126;2022-10-23T01:57:36;99923.16;;;12.48;82.89
41531;BME280;58990;46.284;13.126;2022-10-23T02:00:08;99919.72;;;12.47;82.94
41531;BME280;58990;46.284;13.126;2022-10-23T02:02:36;99923.16;;;12.48;82.94
41531;BME280;58990;46.284;13.126;2022-10-23T02:05:11;99926.41;;;12.50;83.06
41531;BME280;58990;46.284;13.126;2022-10-23T02:07:39;99931.69;;;12.50;82.67
41531;BME280;58990;46.284;13.126;2022-10-23T02:10:05;99927.13;;;12.43;83.41
41531;BME280;58990;46.284;13.126;2022-10-23T02:25:52;99930.41;;;12.69;81.05
41531;BME280;58990;46.284;13.126;2022-10-23T02:28:23;99929.56;;;12.68;80.29
41531;BME280;58990;46.284;13.126;2022-10-23T02:30:50;99924.28;;;12.68;80.19
41531;BME280;58990;46.284;13.126;2022-10-23T02:33:16;99924.28;;;12.68;80.51
41531;BME280;58990;46.284;13.126;2022-10-23T02:35:42;99929.28;;;12.63;80.80
41531;BME280;58990;46.284;13.126;2022-10-23T02:49:58;99907.78;;;12.36;82.56
41531;BME280;58990;46.284;13.126;2022-10-23T02:58:11;99895.25;;;12.15;84.15
41531;BME280;58990;46.284;13.126;2022-10-23T03:00:44;99905.66;;;12.08;85.33
41531;BME280;58990;46.284;13.126;2022-10-23T03:03:24;99906.88;;;11.98;85.63
41531;BME280;58990;46.284;13.126;2022-10-23T03:05:51;99906.38;;;11.94;85.97
41531;BME280;58990;46.284;13.126;2022-10-23T03:08:16;99906.06;;;11.89;85.94
41531;BME280;58990;46.284;13.126;2022-10-23T03:10:42;99906.78;;;11.83;86.51
41531;BME280;58990;46.284;13.126;2022-10-23T03:13:09;99906.59;;;11.84;86.42
41531;BME280;58990;46.284;13.126;2022-10-23T03:15:34;99898.88;;;11.83;86.41
41531;BME280;58990;46.284;13.126;2022-10-23T03:17:59;99908.41;;;11.84;86.06
41531;BME280;58990;46.284;13.126;2022-10-23T03:20:25;99912.00;;;11.91;85.60
41531;BME280;58990;46.284;13.126;2022-10-23T03:22:50;99903.75;;;11.94;85.31
41531;BME280;58990;46.284;13.126;2022-10-23T03:25:16;99903.59;;;11.95;84.97
41531;BME280;58990;46.284;13.126;2022-10-23T03:27:41;99897.69;;;11.93;85.15
41531;BME280;58990;46.284;13.126;2022-10-23T03:30:07;99897.84;;;11.92;84.84
41531;BME280;58990;46.284;13.126;2022-10-23T03:32:33;99902.28;;;11.91;84.85
41531;BME280;58990;46.284;13.126;2022-10-23T03:34:58;99912.63;;;11.93;85.20
41531;BME280;58990;46.284;13.126;2022-10-23T03:37:24;99908.53;;;11.99;84.29
41531;BME280;58990;46.284;13.126;2022-10-23T03:39:49;99913.56;;;12.08;83.56
41531;BME280;58990;46.284;13.126;2022-10-23T03:42:15;99936.25;;;12.09;83.66
41531;BME280;58990;46.284;13.126;2022-10-23T03:44:41;99918.09;;;12.15;83.29
41531;BME280;58990;46.284;13.126;2022-10-23T03:47:06;99918.09;;;12.15;83.04
41531;BME280;58990;46.284;13.126;2022-10-23T03:49:33;99917.78;;;12.18;82.98
41531;BME280;58990;46.284;13.126;2022-10-23T03:51:59;99917.53;;;12.27;82.08
41531;BME280;58990;46.284;13.126;2022-10-23T03:54:26;99914.72;;;12.29;82.24
41531;BME280;58990;46.284;13.126;2022-10-23T03:56:53;99913.19;;;12.35;81.27
41531;BME280;58990;46.284;13.126;2022-10-23T03:59:18;99896.97;;;12.31;81.94
41531;BME280;58990;46.284;13.126;2022-10-23T04:01:43;99889.69;;;12.33;82.01
41531;BME280;58990;46.284;13.126;2022-10-23T04:04:11;99904.44;;;12.42;80.81
41531;BME280;58990;46.284;13.126;2022-10-23T04:06:36;99909.34;;;12.45;80.48
41531;BME280;58990;46.284;13.126;2022-10-23T04:09:03;99915.03;;;12.34;81.28
41531;BME280;58990;46.284;13.126;2022-10-23T04:11:29;99909.56;;;12.36;81.18
41531;BME280;58990;46.284;13.126;2022-10-23T04:13:54;99923.47;;;12.30;81.38
41531;BME280;58990;46.284;13.126;2022-10-23T04:16:20;99915.38;;;12.31;81.17
41531;BME280;58990;46.284;13.126;2022-10-23T04:18:45;99911.84;;;12.39;80.77
41531;BME280;58990;46.284;13.126;2022-10-23T04:21:11;99914.47;;;12.39;80.55
41531;BME280;58990;46.284;13.126;2022-10-23T04:23:36;99908.78;;;12.35;80.72
41531;BME280;58990;46.284;13.126;2022-10-23T04:26:02;99910.41;;;12.36;81.07
41531;BME280;58990;46.284;13.126;2022-10-23T04:28:28;99898.25;;;12.35;80.98
41531;BME280;58990;46.284;13.126;2022-10-23T04:30:54;99907.13;;;12.34;81.29
41531;BME280;58990;46.284;13.126;2022-10-23T04:33:19;99906.91;;;12.21;82.02
41531;BME280;58990;46.284;13.126;2022-10-23T04:35:44;99910.50;;;12.20;81.96
41531;BME280;58990;46.284;13.126;2022-10-23T04:38:10;99927.81;;;12.14;82.26
41531;BME280;58990;46.284;13.126;2022-10-23T04:40:35;99917.47;;;12.13;82.51
41531;BME280;58990;46.284;13.126;2022-10-23T04:43:01;99922.09;;;12.10;82.59
41531;BME280;58990;46.284;13.126;2022-10-23T04:45:27;99920.09;;;12.13;82.84
41531;BME280;58990;46.284;13.126;2022-10-23T04:47:52;99923.16;;;12.01;83.29
41531;BME280;58990;46.284;13.126;2022-10-23T04:50:18;99920.16;;;12.04;83.45
41531;BME280;58990;46.284;13.126;2022-10-23T04:52:44;99921.03;;;11.97;83.89
41531;BME280;58990;46.284;13.126;2022-10-23T04:55:09;99929.22;;;12.02;83.37
41531;BME280;58990;46.284;13.126;2022-10-23T04:57:35;99925.94;;;12.00;83.46
41531;BME280;58990;46.284;13.126;2022-10-23T05:00:03;99917.19;;;12.07;82.64
41531;BME280;58990;46.284;13.126;2022-10-23T05:02:29;99912.50;;;12.18;81.82
41531;BME280;58990;46.284;13.126;2022-10-23T05:04:55;99915.09;;;12.26;81.40
41531;BME280;58990;46.284;13.126;2022-10-23T05:07:20;99915.28;;;12.24;81.31
41531;BME280;58990;46.284;13.126;2022-10-23T05:09:46;99904.91;;;12.23;81.38
41531;BME280;58990;46.284;13.126;2022-10-23T05:12:11;99900.75;;;12.28;80.85
41531;BME280;58990;46.284;13.126;2022-10-23T05:14:36;99904.25;;;12.21;81.29
41531;BME280;58990;46.284;13.126;2022-10-23T05:17:08;99896.84;;;12.24;81.53
41531;BME280;58990;46.284;13.126;2022-10-23T05:19:40;99902.44;;;12.21;81.37
41531;BME280;58990;46.284;13.126;2022-10-23T05:22:07;99909.03;;;12.17;81.86
41531;BME280;58990;46.284;13.126;2022-10-23T05:24:33;99919.19;;;12.05;82.45
41531;BME280;58990;46.284;13.126;2022-10-23T05:26:59;99915.06;;;12.03;83.11
41531;BME280;58990;46.284;13.126;2022-10-23T05:29:24;99915.41;;;12.00;83.65
41531;BME280;58990;46.284;13.126;2022-10-23T05:31:53;99916.59;;;11.97;83.41
41531;BME280;58990;46.284;13.126;2022-10-23T05:34:21;99914.63;;;11.91;83.60
41531;BME280;58990;46.284;13.126;2022-10-23T05:36:48;99915.97;;;11.87;84.05
41531;BME280;58990;46.284;13.126;2022-10-23T05:39:14;99914.78;;;11.89;83.94
41531;BME280;58990;46.284;13.126;2022-10-23T05:41:39;99908.38;;;11.92;84.23
41531;BME280;58990;46.284;13.126;2022-10-23T05:44:05;99907.25;;;11.94;83.65
41531;BME280;58990;46.284;13.126;2022-10-23T05:46:30;99916.25;;;12.00;83.20
41531;BME280;58990;46.284;13.126;2022-10-23T05:48:55;99911.91;;;12.07;82.67
41531;BME280;58990;46.284;13.126;2022-10-23T05:51:21;99900.03;;;12.11;81.81
41531;BME280;58990;46.284;13.126;2022-10-23T05:53:51;99918.81;;;12.08;82.34
41531;BME280;58990;46.284;13.126;2022-10-23T05:56:17;99914.25;;;12.02;82.20
41531;BME280;58990;46.284;13.126;2022-10-23T05:58:43;99915.84;;;12.11;82.04
41531;BME280;58990;46.284;13.126;2022-10-23T06:01:10;99916.00;;;12.10;82.27
41531;BME280;58990;46.284;13.126;2022-10-23T06:03:37;99916.50;;;12.14;82.28
41531;BME280;58990;46.284;13.126;2022-10-23T06:06:03;99931.91;;;12.17;82.00
41531;BME280;58990;46.284;13.126;2022-10-23T06:08:29;99923.03;;;12.18;81.83
41531;BME280;58990;46.284;13.126;2022-10-23T06:10:55;99926.31;;;12.20;81.71
41531;BME280;58990;46.284;13.126;2022-10-23T06:13:21;99928.75;;;12.21;81.29
41531;BME280;58990;46.284;13.126;2022-10-23T06:15:46;99936.66;;;12.21;81.95
41531;BME280;58990;46.284;13.126;2022-10-23T06:18:12;99943.69;;;12.29;81.55
41531;BME280;58990;46.284;13.126;2022-10-23T06:20:38;99943.97;;;12.34;80.97
41531;BME280;58990;46.284;13.126;2022-10-23T06:23:04;99937.38;;;12.38;80.70
41531;BME280;58990;46.284;13.126;2022-10-23T06:25:30;99940.94;;;12.45;80.66
41531;BME280;58990;46.284;13.126;2022-10-23T06:27:55;99939.44;;;12.51;79.58
41531;BME280;58990;46.284;13.126;2022-10-23T06:30:21;99947.59;;;12.56;80.03
41531;BME280;58990;46.284;13.126;2022-10-23T06:32:46;99939.88;;;12.55;80.06
41531;BME280;58990;46.284;13.126;2022-10-23T06:35:12;99942.81;;;12.60;79.31
41531;BME280;58990;46.284;13.126;2022-10-23T06:37:37;99945.34;;;12.68;79.22
41531;BME280;58990;46.284;13.126;2022-10-23T06:40:03;99947.63;;;12.71;78.21
41531;BME280;58990;46.284;13.126;2022-10-23T06:42:29;99955.53;;;12.71;79.29
41531;BME280;58990;46.284;13.126;2022-10-23T06:44:55;99965.38;;;12.77;78.84
41531;BME280;58990;46.284;13.126;2022-10-23T06:47:20;99968.00;;;12.77;78.23
41531;BME280;58990;46.284;13.126;2022-10-23T06:49:46;99976.59;;;12.71;78.68
41531;BME280;58990;46.284;13.126;2022-10-23T06:52:11;99966.91;;;12.72;78.52
41531;BME280;58990;46.284;13.126;2022-10-23T06:54:37;99957.34;;;12.71;78.74
41531;BME280;58990;46.284;13.126;2022-10-23T06:57:02;99956.84;;;12.75;78.15
41531;BME280;58990;46.284;13.126;2022-10-23T06:59:27;99971.13;;;12.81;78.03
41531;BME280;58990;46.284;13.126;2022-10-23T07:01:53;99975.22;;;12.84;77.74
41531;BME280;58990;46.284;13.126;2022-10-23T07:04:18;99976.50;;;12.88;77.61
41531;BME280;58990;46.284;13.126;2022-10-23T07:06:43;99980.47;;;12.84;77.78
41531;BME280;58990;46.284;13.126;2022-10-23T07:09:09;99972.75;;;12.82;78.25
41531;BME280;58990;46.284;13.126;2022-10-23T07:11:34;99971.91;;;12.82;78.45
41531;BME280;58990;46.284;13.126;2022-10-23T07:14:00;99979.63;;;12.83;78.85
41531;BME280;58990;46.284;13.126;2022-10-23T07:16:26;99979.47;;;12.85;78.46
41531;BME280;58990;46.284;13.126;2022-10-23T07:18:56;99979.13;;;12.88;78.02
41531;BME280;58990;46.284;13.126;2022-10-23T07:21:25;99986.66;;;12.91;78.20
41531;BME280;58990;46.284;13.126;2022-10-23T07:23:51;99988.06;;;13.02;77.28
41531;BME280;58990;46.284;13.126;2022-10-23T07:26:16;100004.06;;;13.15;77.17
41531;BME280;58990;46.284;13.126;2022-10-23T07:28:43;100009.91;;;13.25;76.39
41531;BME280;58990;46.284;13.126;2022-10-23T07:31:09;100007.81;;;13.21;76.79
41531;BME280;58990;46.284;13.126;2022-10-23T07:33:35;100006.16;;;13.20;76.37
41531;BME280;58990;46.284;13.126;2022-10-23T07:36:03;100004.19;;;13.22;76.72
41531;BME280;58990;46.284;13.126;2022-10-23T07:38:29;100005.28;;;13.27;76.92
41531;BME280;58990;46.284;13.126;2022-10-23T07:40:58;100010.16;;;13.39;76.29
41531;BME280;58990;46.284;13.126;2022-10-23T07:43:24;100012.78;;;13.54;75.41
41531;BME280;58990;46.284;13.126;2022-10-23T07:45:50;100012.50;;;13.63;74.74
41531;BME280;58990;46.284;13.126;2022-10-23T07:48:16;100021.97;;;13.73;74.53
41531;BME280;58990;46.284;13.126;2022-10-23T07:50:41;100020.41;;;13.78;74.17
41531;BME280;58990;46.284;13.126;2022-10-23T07:53:13;100011.22;;;13.89;73.96
41531;BME280;58990;46.284;13.126;2022-10-23T07:55:40;100005.66;;;13.99;73.84
41531;BME280;58990;46.284;13.126;2022-10-23T07:58:06;100011.28;;;14.11;73.90
41531;BME280;58990;46.284;13.126;2022-10-23T08:00:31;100019.28;;;14.18;73.97
41531;BME280;58990;46.284;13.126;2022-10-23T08:02:56;100029.66;;;14.19;72.75
41531;BME280;58990;46.284;13.126;2022-10-23T08:05:22;100022.03;;;14.09;72.83
41531;BME280;58990;46.284;13.126;2022-10-23T08:07:47;100014.50;;;14.06;72.94
41531;BME280;58990;46.284;13.126;2022-10-23T08:10:13;100018.00;;;14.13;72.90
41531;BME280;58990;46.284;13.126;2022-10-23T08:12:38;100017.63;;;14.17;73.16
41531;BME280;58990;46.284;13.126;2022-10-23T08:15:04;100015.63;;;14.19;73.39
41531;BME280;58990;46.284;13.126;2022-10-23T08:17:29;100018.47;;;14.17;73.10
41531;BME280;58990;46.284;13.126;2022-10-23T08:19:55;100011.97;;;14.20;72.77
41531;BME280;58990;46.284;13.126;2022-10-23T08:22:20;100024.06;;;14.29;72.67
41531;BME280;58990;46.284;13.126;2022-10-23T08:24:45;100024.00;;;14.22;73.22
41531;BME280;58990;46.284;13.126;2022-10-23T08:27:11;100017.53;;;14.25;72.83
41531;BME280;58990;46.284;13.126;2022-10-23T08:29:36;100011.53;;;14.53;72.79
41531;BME280;58990;46.284;13.126;2022-10-23T08:32:02;100015.59;;;14.70;72.56
41531;BME280;58990;46.284;13.126;2022-10-23T08:34:27;100016.97;;;14.66;72.19
41531;BME280;58990;46.284;13.126;2022-10-23T08:36:53;100015.03;;;14.60;72.25
41531;BME280;58990;46.284;13.126;2022-10-23T08:39:18;100010.13;;;14.72;71.84
41531;BME280;58990;46.284;13.126;2022-10-23T08:41:48;100009.44;;;14.85;70.23
41531;BME280;58990;46.284;13.126;2022-10-23T08:57:37;99995.94;;;17.80;60.16
41531;BME280;58990;46.284;13.126;2022-10-23T09:00:11;100006.06;;;18.74;56.39
41531;BME280;58990;46.284;13.126;2022-10-23T09:02:41;100010.59;;;19.24;55.23
41531;BME280;58990;46.284;13.126;2022-10-23T09:05:15;100010.78;;;19.48;54.00
41531;BME280;58990;46.284;13.126;2022-10-23T09:23:44;100014.91;;;20.91;49.54
41531;BME280;58990;46.284;13.126;2022-10-23T09:26:15;100008.84;;;20.41;50.45
41531;BME280;58990;46.284;13.126;2022-10-23T09:28:46;100023.41;;;19.53;53.15
41531;BME280;58990;46.284;13.126;2022-10-23T09:31:12;100023.06;;;19.05;55.47
41531;BME280;58990;46.284;13.126;2022-10-23T09:33:38;100023.16;;;18.92;55.51
41531;BME280;58990;46.284;13.126;2022-10-23T09:36:07;100017.78;;;18.98;55.70
41531;BME280;58990;46.284;13.126;2022-10-23T09:38:38;100028.69;;;19.15;55.82
41531;BME280;58990;46.284;13.126;2022-10-23T09:54:32;100020.22;;;19.00;57.24
41531;BME280;58990;46.284;13.126;2022-10-23T09:57:11;100025.53;;;19.00;56.06
41531;BME280;58990;46.284;13.126;2022-10-23T09:59:39;100028.50;;;18.85;55.91
41531;BME280;58990;46.284;13.126;2022-10-23T10:02:30;100029.50;;;18.59;56.77
41531;BME280;58990;46.284;13.126;2022-10-23T10:04:56;100025.91;;;18.46;56.73
41531;BME280;58990;46.284;13.126;2022-10-23T10:07:24;100036.69;;;18.52;58.78
41531;BME280;58990;46.284;13.126;2022-10-23T10:09:51;100026.50;;;18.48;58.11
41531;BME280;58990;46.284;13.126;2022-10-23T10:12:49;100031.63;;;18.43;58.41
41531;BME280;58990;46.284;13.126;2022-10-23T10:47:48;100027.78;;;19.47;59.14
41531;BME280;58990;46.284;13.126;2022-10-23T10:50:25;100032.88;;;19.48;57.35
41531;BME280;58990;46.284;13.126;2022-10-23T11:06:13;99999.31;;;20.03;57.50
41531;BME280;58990;46.284;13.126;2022-10-23T11:08:40;100006.56;;;19.96;56.95
41531;BME280;58990;46.284;13.126;2022-10-23T11:13:59;99990.50;;;20.03;58.38
41531;BME280;58990;46.284;13.126;2022-10-23T11:16:29;99994.72;;;20.10;58.98
41531;BME280;58990;46.284;13.126;2022-10-23T11:22:25;99976.16;;;20.34;58.28
41531;BME280;58990;46.284;13.126;2022-10-23T11:38:27;99971.22;;;19.89;58.78
41531;BME280;58990;46.284;13.126;2022-10-23T11:41:00;99976.53;;;19.70;58.66
41531;BME280;58990;46.284;13.126;2022-10-23T11:46:27;99971.94;;;19.22;61.88
41531;BME280;58990;46.284;13.126;2022-10-23T11:48:57;99951.38;;;19.47;59.83
41531;BME280;58990;46.284;13.126;2022-10-23T11:51:37;99948.38;;;19.62;59.45
41531;BME280;58990;46.284;13.126;2022-10-23T12:12:57;99938.94;;;20.27;60.30
41531;BME280;58990;46.284;13.126;2022-10-23T12:15:27;99939.22;;;20.07;62.07
41531;BME280;58990;46.284;13.126;2022-10-23T12:17:54;99945.47;;;19.82;61.53
41531;BME280;58990;46.284;13.126;2022-10-23T12:40:12;99920.19;;;19.55;63.23
41531;BME280;58990;46.284;13.126;2022-10-23T12:42:37;99914.72;;;19.49;63.33
41531;BME280;58990;46.284;13.126;2022-10-23T12:47:50;99905.13;;;19.30;65.18
41531;BME280;58990;46.284;13.126;2022-10-23T12:50:22;99898.91;;;19.36;65.39
41531;BME280;58990;46.284;13.126;2022-10-23T12:53:00;99902.31;;;19.43;65.87
41531;BME280;58990;46.284;13.126;2022-10-23T12:55:30;99899.06;;;19.41;65.91
41531;BME280;58990;46.284;13.126;2022-10-23T12:57:56;99894.38;;;19.55;66.14
41531;BME280;58990;46.284;13.126;2022-10-23T13:00:23;99905.31;;;19.65;65.10
41531;BME280;58990;46.284;13.126;2022-10-23T13:03:02;99904.06;;;19.98;63.40
41531;BME280;58990;46.284;13.126;2022-10-23T13:05:29;99899.47;;;20.06;62.52
41531;BME280;58990;46.284;13.126;2022-10-23T13:07:57;99896.72;;;20.24;61.76
41531;BME280;58990;46.284;13.126;2022-10-23T13:10:24;99900.47;;;20.35;61.59
41531;BME280;58990;46.284;13.126;2022-10-23T13:13:05;99895.03;;;20.30;62.15
41531;BME280;58990;46.284;13.126;2022-10-23T13:15:39;99902.88;;;20.25;62.78
41531;BME280;58990;46.284;13.126;2022-10-23T13:18:06;99895.84;;;20.42;63.26
41531;BME280;58990;46.284;13.126;2022-10-23T13:20:35;99903.63;;;20.44;63.28
41531;BME280;58990;46.284;13.126;2022-10-23T13:28:40;99885.75;;;19.90;65.53
41531;BME280;58990;46.284;13.126;2022-10-23T13:36:36;99871.97;;;19.63;67.91
41531;BME280;58990;46.284;13.126;2022-10-23T13:41:51;99866.84;;;19.80;68.17
41531;BME280;58990;46.284;13.126;2022-10-23T13:44:22;99857.84;;;19.93;67.58
41531;BME280;58990;46.284;13.126;2022-10-23T13:46:48;99863.19;;;19.93;67.75
41531;BME280;58990;46.284;13.126;2022-10-23T13:49:14;99864.91;;;19.87;68.41
41531;BME280;58990;46.284;13.126;2022-10-23T13:51:46;99871.56;;;19.78;68.64
41531;BME280;58990;46.284;13.126;2022-10-23T13:54:17;99871.50;;;19.85;69.52
41531;BME280;58990;46.284;13.126;2022-10-23T13:56:43;99875.09;;;19.90;69.73
41531;BME280;58990;46.284;13.126;2022-10-23T13:59:09;99876.09;;;19.77;70.75
41531;BME280;58990;46.284;13.126;2022-10-23T14:01:35;99874.16;;;19.66;71.20
41531;BME280;58990;46.284;13.126;2022-10-23T14:04:02;99863.97;;;19.63;71.52
41531;BME280;58990;46.284;13.126;2022-10-23T14:06:29;99872.19;;;19.61;71.54
41531;BME280;58990;46.284;13.126;2022-10-23T14:08:54;99871.53;;;19.47;73.27
41531;BME280;58990;46.284;13.126;2022-10-23T14:11:20;99876.13;;;19.40;73.88
41531;BME280;58990;46.284;13.126;2022-10-23T14:13:46;99874.81;;;19.31;74.80
41531;BME280;58990;46.284;13.126;2022-10-23T14:16:13;99873.88;;;19.25;76.55
41531;BME280;58990;46.284;13.126;2022-10-23T14:18:38;99879.78;;;19.27;76.65
41531;BME280;58990;46.284;13.126;2022-10-23T14:21:05;99880.44;;;19.23;77.29
41531;BME280;58990;46.284;13.126;2022-10-23T14:23:31;99879.19;;;19.25;75.95
41531;BME280;58990;46.284;13.126;2022-10-23T14:26:04;99876.97;;;19.22;75.45
41531;BME280;58990;46.284;13.126;2022-10-23T14:28:30;99870.25;;;19.20;75.71
41531;BME280;58990;46.284;13.126;2022-10-23T14:30:55;99877.63;;;19.17;75.89
41531;BME280;58990;46.284;13.126;2022-10-23T14:33:21;99869.78;;;19.23;77.09
41531;BME280;58990;46.284;13.126;2022-10-23T14:35:49;99874.66;;;19.26;78.27
41531;BME280;58990;46.284;13.126;2022-10-23T14:38:14;99876.81;;;18.98;81.77
41531;BME280;58990;46.284;13.126;2022-10-23T14:40:39;99867.28;;;18.91;81.36
41531;BME280;58990;46.284;13.126;2022-10-23T14:43:05;99871.22;;;18.88;82.28
41531;BME280;58990;46.284;13.126;2022-10-23T14:45:30;99869.34;;;18.89;81.69
41531;BME280;58990;46.284;13.126;2022-10-23T14:47:56;99864.22;;;18.87;83.57
41531;BME280;58990;46.284;13.126;2022-10-23T14:50:21;99867.31;;;18.84;83.85
41531;BME280;58990;46.284;13.126;2022-10-23T14:52:47;99871.44;;;18.80;83.23
41531;BME280;58990;46.284;13.126;2022-10-23T14:55:12;99863.41;;;18.87;82.79
41531;BME280;58990;46.284;13.126;2022-10-23T14:57:38;99870.97;;;18.90;81.72
41531;BME280;58990;46.284;13.126;2022-10-23T15:00:05;99870.19;;;18.82;82.19
41531;BME280;58990;46.284;13.126;2022-10-23T15:02:31;99875.09;;;18.86;82.44
41531;BME280;58990;46.284;13.126;2022-10-23T15:04:56;99874.66;;;18.89;82.61
41531;BME280;58990;46.284;13.126;2022-10-23T15:07:21;99877.75;;;18.86;83.96
41531;BME280;58990;46.284;13.126;2022-10-23T15:09:47;99884.53;;;18.81;84.23
41531;BME280;58990;46.284;13.126;2022-10-23T15:12:14;99879.88;;;18.77;84.81
41531;BME280;58990;46.284;13.126;2022-10-23T15:14:40;99883.19;;;18.72;86.37
41531;BME280;58990;46.284;13.126;2022-10-23T15:17:05;99877.88;;;18.72;86.68
41531;BME280;58990;46.284;13.126;2022-10-23T15:19:30;99884.66;;;18.68;86.98
41531;BME280;58990;46.284;13.126;2022-10-23T15:21:56;99880.59;;;18.65;87.62
41531;BME280;58990;46.284;13.126;2022-10-23T15:24:21;99882.16;;;18.48;90.13
41531;BME280;58990;46.284;13.126;2022-10-23T15:26:47;99873.38;;;18.47;90.13
41531;BME280;58990;46.284;13.126;2022-10-23T15:29:14;99881.63;;;18.39;90.51
41531;BME280;58990;46.284;13.126;2022-10-23T15:31:41;99881.25;;;18.36;90.71
41531;BME280;58990;46.284;13.126;2022-10-23T15:34:10;99875.56;;;18.32;91.19
41531;BME280;58990;46.284;13.126;2022-10-23T15:36:36;99876.75;;;18.36;91.35
41531;BME280;58990;46.284;13.126;2022-10-23T15:39:05;99884.09;;;18.34;91.56
41531;BME280;58990;46.284;13.126;2022-10-23T15:41:33;99872.69;;;18.33;91.27
41531;BME280;58990;46.284;13.126;2022-10-23T15:44:00;99880.47;;;18.28;91.22
41531;BME280;58990;46.284;13.126;2022-10-23T15:46:25;99881.25;;;18.36;90.89
41531;BME280;58990;46.284;13.126;2022-10-23T15:48:51;99881.31;;;18.29;92.28
41531;BME280;58990;46.284;13.126;2022-10-23T15:51:16;99886.88;;;18.21;94.08
41531;BME280;58990;46.284;13.126;2022-10-23T15:53:42;99891.38;;;18.20;94.38
41531;BME280;58990;46.284;13.126;2022-10-23T15:56:07;99893.47;;;18.11;95.43
41531;BME280;58990;46.284;13.126;2022-10-23T15:58:33;99887.56;;;18.09;95.95
41531;BME280;58990;46.284;13.126;2022-10-23T16:01:01;99891.22;;;18.08;95.75
41531;BME280;58990;46.284;13.126;2022-10-23T16:03:31;99896.00;;;17.99;96.66
41531;BME280;58990;46.284;13.126;2022-10-23T16:05:56;99897.81;;;17.99;96.28
41531;BME280;58990;46.284;13.126;2022-10-23T16:08:22;99901.34;;;17.93;96.25
41531;BME280;58990;46.284;13.126;2022-10-23T16:10:48;99897.91;;;17.92;96.18
41531;BME280;58990;46.284;13.126;2022-10-23T16:13:13;99898.69;;;17.86;97.11
41531;BME280;58990;46.284;13.126;2022-10-23T16:15:39;99898.31;;;17.82;97.29
41531;BME280;58990;46.284;13.126;2022-10-23T16:18:04;99894.03;;;17.81;97.37
41531;BME280;58990;46.284;13.126;2022-10-23T16:20:30;99896.50;;;17.76;97.60
41531;BME280;58990;46.284;13.126;2022-10-23T16:22:56;99895.13;;;17.67;98.76
41531;BME280;58990;46.284;13.126;2022-10-23T16:25:21;99894.31;;;17.60;98.82
41531;BME280;58990;46.284;13.126;2022-10-23T16:27:47;99905.38;;;17.57;98.55
41531;BME280;58990;46.284;13.126;2022-10-23T16:30:13;99911.53;;;17.51;99.18
41531;BME280;58990;46.284;13.126;2022-10-23T16:32:39;99915.63;;;17.46;99.88
41531;BME280;58990;46.284;13.126;2022-10-23T16:35:05;99918.69;;;17.43;100.00
41531;BME280;58990;46.284;13.126;2022-10-23T16:37:31;99916.88;;;17.37;100.00